createdAt,value
2024-05-09T00:00:46.684Z,80.75
2024-05-09T00:03:14.620Z,80.79
2024-05-09T00:05:43.791Z,79.94
2024-05-09T00:08:12.635Z,79.49
2024-05-09T00:10:41.322Z,79.29
2024-05-09T00:13:11.127Z,79.04
2024-05-09T00:15:39.243Z,78.61
2024-05-09T00:18:08.858Z,78.23
2024-05-09T00:20:40.025Z,78.16
2024-05-09T00:23:13.889Z,77.42
2024-05-09T00:25:45.521Z,77.80
2024-05-09T00:28:13.727Z,77.37
2024-05-09T00:30:41.594Z,77.75
2024-05-09T00:33:10.975Z,78.07
2024-05-09T00:35:40.075Z,78.54
2024-05-09T00:38:08.384Z,78.48
2024-05-09T00:40:42.290Z,78.15
2024-05-09T00:43:13.121Z,78.42
2024-05-09T00:45:42.735Z,78.38
2024-05-09T00:48:14.331Z,77.73
2024-05-09T00:50:47.450Z,77.91
2024-05-09T00:53:18.393Z,78.40
2024-05-09T00:55:47.792Z,78.30
2024-05-09T00:58:18.323Z,77.92
2024-05-09T01:00:46.787Z,78.05
2024-05-09T01:03:14.860Z,78.27
2024-05-09T01:05:44.040Z,79.15
2024-05-09T01:08:13.334Z,79.54
2024-05-09T01:10:44.831Z,79.54
2024-05-09T01:13:13.985Z,79.68
2024-05-09T01:15:42.431Z,79.98
2024-05-09T01:18:12.373Z,80.73
2024-05-09T01:20:44.038Z,79.82
2024-05-09T01:23:15.606Z,80.05
2024-05-09T01:25:45.987Z,81.09
2024-05-09T01:28:15.236Z,81.60
2024-05-09T01:30:43.292Z,82.23
2024-05-09T01:33:12.416Z,82.41
2024-05-09T01:35:42.339Z,83.16
2024-05-09T01:38:17.086Z,83.22
2024-05-09T01:40:45.495Z,83.31
2024-05-09T01:43:13.311Z,83.20
2024-05-09T01:45:41.674Z,83.00
2024-05-09T01:48:11.267Z,83.01
2024-05-09T01:50:42.195Z,83.09
2024-05-09T01:53:13.862Z,81.94
2024-05-09T01:55:42.629Z,81.96
2024-05-09T01:58:10.662Z,81.32
2024-05-09T02:00:42.430Z,81.53
2024-05-09T02:03:15.520Z,80.90
2024-05-09T02:05:47.272Z,80.73
2024-05-09T02:08:20.788Z,81.35
2024-05-09T02:10:50.041Z,80.78
2024-05-09T02:13:19.080Z,80.97
2024-05-09T02:15:46.995Z,80.99
2024-05-09T02:18:14.952Z,81.55
2024-05-09T02:20:43.572Z,82.25
2024-05-09T02:23:12.531Z,82.78
2024-05-09T02:25:41.467Z,82.62
2024-05-09T02:28:09.334Z,83.12
2024-05-09T02:30:40.686Z,83.34
2024-05-09T02:33:12.710Z,83.08
2024-05-09T02:35:43.743Z,83.05
2024-05-09T02:38:12.627Z,83.13
2024-05-09T02:40:40.982Z,82.35
2024-05-09T02:43:12.393Z,82.35
2024-05-09T02:45:40.940Z,82.35
2024-05-09T02:48:13.047Z,82.27
2024-05-09T02:50:42.213Z,82.76
2024-05-09T02:53:11.818Z,82.70
2024-05-09T02:55:40.366Z,82.43
2024-05-09T02:58:08.563Z,82.49
2024-05-09T03:00:40.211Z,82.78
2024-05-09T03:03:13.393Z,82.47
2024-05-09T03:05:44.631Z,81.78
2024-05-09T03:08:13.083Z,82.38
2024-05-09T03:10:40.982Z,82.01
2024-05-09T03:13:11.623Z,81.77
2024-05-09T03:15:39.646Z,81.73
2024-05-09T03:18:07.707Z,82.04
2024-05-09T03:20:36.815Z,81.88
2024-05-09T03:23:08.119Z,82.48
2024-05-09T03:25:37.087Z,83.17
2024-05-09T03:28:05.194Z,83.90
2024-05-09T03:30:40.165Z,84.04
2024-05-09T03:33:12.902Z,84.40
2024-05-09T03:35:42.051Z,84.57
2024-05-09T03:38:10.123Z,84.77
2024-05-09T03:40:45.010Z,84.99
2024-05-09T03:43:13.006Z,84.72
2024-05-09T03:45:40.978Z,84.26
2024-05-09T03:48:09.112Z,84.56
2024-05-09T03:50:37.558Z,84.65
2024-05-09T03:53:06.536Z,84.77
2024-05-09T03:55:34.215Z,84.86
2024-05-09T03:58:01.992Z,84.50
2024-05-09T04:00:37.097Z,83.87
2024-05-09T04:03:09.985Z,84.27
2024-05-09T04:05:42.174Z,84.35
2024-05-09T04:08:11.320Z,84.37
2024-05-09T04:10:39.409Z,84.59
2024-05-09T04:13:07.196Z,84.94
2024-05-09T04:15:34.958Z,84.97
2024-05-09T04:18:03.094Z,85.23
2024-05-09T04:20:38.059Z,85.55
2024-05-09T04:23:12.239Z,85.16
2024-05-09T04:25:45.250Z,84.94
2024-05-09T04:28:14.491Z,85.51
2024-05-09T04:30:42.954Z,85.33
2024-05-09T04:33:13.358Z,85.12
2024-05-09T04:35:45.604Z,85.34
2024-05-09T04:38:14.676Z,84.71
2024-05-09T04:40:43.325Z,85.10
2024-05-09T04:43:16.280Z,84.86
2024-05-09T04:45:44.335Z,84.83
2024-05-09T04:48:12.282Z,84.91
2024-05-09T04:50:40.488Z,85.02
2024-05-09T04:53:10.583Z,85.96
2024-05-09T04:55:40.538Z,86.07
2024-05-09T04:58:09.336Z,86.10
2024-05-09T05:00:39.451Z,86.18
2024-05-09T05:03:10.801Z,86.00
2024-05-09T05:05:41.824Z,85.97
2024-05-09T05:08:13.897Z,85.75
2024-05-09T05:10:43.186Z,85.06
2024-05-09T05:13:23.045Z,85.14
2024-05-09T05:15:57.706Z,85.27
2024-05-09T05:18:27.932Z,85.05
2024-05-09T05:20:56.725Z,84.90
2024-05-09T05:23:24.894Z,84.79
2024-05-09T05:25:53.612Z,84.53
2024-05-09T05:28:22.179Z,85.04
2024-05-09T05:30:50.399Z,84.37
2024-05-09T05:33:19.281Z,84.01
2024-05-09T05:35:48.253Z,83.79
2024-05-09T05:38:16.170Z,83.41
2024-05-09T05:40:44.089Z,82.09
2024-05-09T05:43:19.193Z,81.94
2024-05-09T05:45:47.092Z,81.43
2024-05-09T05:48:18.682Z,80.87
2024-05-09T05:50:46.884Z,80.19
2024-05-09T05:53:14.881Z,80.52
2024-05-09T05:55:42.819Z,80.12
2024-05-09T05:58:11.904Z,79.47
2024-05-09T06:00:41.967Z,79.48
2024-05-09T06:03:12.937Z,78.89
2024-05-09T06:05:44.120Z,78.46
2024-05-09T06:08:12.573Z,78.22
2024-05-09T06:10:41.623Z,78.44
2024-05-09T06:13:13.722Z,79.25
2024-05-09T06:15:42.536Z,78.61
2024-05-09T06:18:12.142Z,79.27
2024-05-09T06:20:42.852Z,80.10
2024-05-09T06:23:12.246Z,79.47
2024-05-09T06:25:40.628Z,79.69
2024-05-09T06:28:08.439Z,79.84
2024-05-09T06:30:40.622Z,79.61
2024-05-09T06:33:13.038Z,78.61
2024-05-09T06:35:43.798Z,78.29
2024-05-09T06:38:12.241Z,78.74
2024-05-09T06:40:42.895Z,78.40
2024-05-09T06:43:17.582Z,78.70
2024-05-09T06:45:48.599Z,78.35
2024-05-09T06:48:20.883Z,79.18
2024-05-09T06:50:49.940Z,79.05
2024-05-09T06:53:20.603Z,79.33
2024-05-09T06:55:48.466Z,79.30
2024-05-09T06:58:16.419Z,79.34
2024-05-09T07:00:44.271Z,79.99
2024-05-09T07:03:16.258Z,79.68
2024-05-09T07:05:47.540Z,79.96
2024-05-09T07:08:17.125Z,80.12
2024-05-09T07:10:45.241Z,80.24
2024-05-09T07:13:14.299Z,80.78
2024-05-09T07:15:42.293Z,80.50
2024-05-09T07:18:20.091Z,80.79
2024-05-09T07:20:49.441Z,81.18
2024-05-09T07:23:18.860Z,81.01
2024-05-09T07:25:47.087Z,81.05
2024-05-09T07:28:16.647Z,81.03
2024-05-09T07:30:45.131Z,81.25
2024-05-09T07:33:21.375Z,81.19
2024-05-09T07:35:50.716Z,81.31
2024-05-09T07:38:18.792Z,80.14
2024-05-09T07:40:46.912Z,80.81
2024-05-09T07:43:16.140Z,80.66
2024-05-09T07:45:52.228Z,80.98
2024-05-09T07:52:38.662Z,81.46
2024-05-09T07:53:47.378Z,81.19
2024-05-09T07:56:21.263Z,81.30
2024-05-09T07:58:51.852Z,81.55
2024-05-09T08:01:20.720Z,81.72
2024-05-09T08:03:49.066Z,80.93
2024-05-09T08:06:17.160Z,81.87
2024-05-09T08:08:47.897Z,81.33
2024-05-09T08:11:16.145Z,81.15
2024-05-09T08:13:43.975Z,80.91
2024-05-09T08:16:14.830Z,81.04
2024-05-09T08:18:42.887Z,80.96
2024-05-09T08:21:10.783Z,80.66
2024-05-09T08:23:38.528Z,81.03
2024-05-09T08:26:06.351Z,81.50
2024-05-09T08:28:34.118Z,81.14
2024-05-09T08:31:06.036Z,81.18
2024-05-09T08:33:35.235Z,81.15
2024-05-09T08:36:03.270Z,81.26
2024-05-09T08:38:31.018Z,80.56
2024-05-09T08:40:58.911Z,80.44
2024-05-09T08:43:27.571Z,80.10
2024-05-09T08:45:55.787Z,79.59
2024-05-09T08:48:24.554Z,79.53
2024-05-09T08:50:53.500Z,79.65
2024-05-09T08:53:21.409Z,79.63
2024-05-09T08:55:51.227Z,79.48
2024-05-09T08:58:19.680Z,79.84
2024-05-09T09:00:48.640Z,79.73
2024-05-09T09:03:25.323Z,80.00
2024-05-09T09:06:04.895Z,79.71
2024-05-09T09:08:32.744Z,79.54
2024-05-09T09:11:00.893Z,79.13
2024-05-09T09:13:28.686Z,78.90
2024-05-09T09:16:00.170Z,79.02
2024-05-09T09:18:30.464Z,78.75
2024-05-09T09:20:58.849Z,78.54
2024-05-09T09:23:30.377Z,78.45
2024-05-09T09:26:02.050Z,78.26
2024-05-09T09:28:30.072Z,77.41
2024-05-09T09:31:03.236Z,77.25
2024-05-09T09:33:32.075Z,77.34
2024-05-09T09:36:02.879Z,77.33
2024-05-09T09:38:32.512Z,76.99
2024-05-09T09:41:03.299Z,77.16
2024-05-09T09:43:32.983Z,76.90
2024-05-09T09:46:02.269Z,76.93
2024-05-09T09:48:31.712Z,77.63
2024-05-09T09:51:00.093Z,77.84
2024-05-09T09:53:33.520Z,78.20
2024-05-09T09:56:02.419Z,78.72
2024-05-09T09:58:33.036Z,78.15
2024-05-09T10:01:00.422Z,78.50
2024-05-09T10:03:28.046Z,78.37
2024-05-09T10:05:56.395Z,78.60
2024-05-09T10:08:24.672Z,78.75
2024-05-09T10:10:52.470Z,79.05
2024-05-09T10:13:20.178Z,79.85
2024-05-09T10:15:51.740Z,78.87
2024-05-09T10:18:28.590Z,78.88
2024-05-09T10:20:58.086Z,79.38
2024-05-09T10:23:26.809Z,79.47
2024-05-09T10:26:06.568Z,78.89
2024-05-09T10:28:36.945Z,78.56
2024-05-09T10:31:11.548Z,78.22
2024-05-09T10:33:50.210Z,78.18
2024-05-09T10:36:29.212Z,77.54
2024-05-09T10:38:56.481Z,77.40
2024-05-09T10:41:24.078Z,75.96
2024-05-09T10:43:52.068Z,76.27
2024-05-09T10:46:19.993Z,76.97
2024-05-09T10:48:48.650Z,76.67
2024-05-09T10:51:19.303Z,76.15
2024-05-09T10:53:48.982Z,76.29
2024-05-09T10:56:17.351Z,76.04
2024-05-09T10:58:45.060Z,75.87
2024-05-09T11:01:13.733Z,75.38
2024-05-09T11:03:41.874Z,74.92
2024-05-09T11:06:11.422Z,75.06
2024-05-09T11:08:39.570Z,73.84
2024-05-09T11:11:08.701Z,73.79
2024-05-09T11:13:38.129Z,73.39
2024-05-09T11:16:07.584Z,73.49
2024-05-09T11:18:39.150Z,73.49
2024-05-09T11:21:13.497Z,73.01
2024-05-09T11:23:41.845Z,73.28
2024-05-09T11:26:11.130Z,74.13
2024-05-09T11:28:38.495Z,74.14
2024-05-09T11:31:10.406Z,73.71
2024-05-09T11:33:40.031Z,73.00
2024-05-09T11:36:08.904Z,72.57
2024-05-09T11:38:36.121Z,71.53
2024-05-09T11:41:05.571Z,70.90
2024-05-09T11:43:33.498Z,70.44
2024-05-09T11:46:03.017Z,69.59
2024-05-09T11:48:31.133Z,69.41
2024-05-09T11:50:58.919Z,68.93
2024-05-09T11:53:26.143Z,68.33
2024-05-09T11:55:53.691Z,69.08
2024-05-09T11:58:23.068Z,69.04
2024-05-09T12:00:50.549Z,68.94
2024-05-09T12:03:18.149Z,69.39
2024-05-09T12:05:45.719Z,68.19
2024-05-09T12:08:13.262Z,68.30
2024-05-09T12:10:40.850Z,67.35
2024-05-09T12:13:08.602Z,68.03
2024-05-09T12:15:38.024Z,67.10
2024-05-09T12:18:07.313Z,66.15
2024-05-09T12:20:38.445Z,66.30
2024-05-09T12:23:09.726Z,66.28
2024-05-09T12:25:39.161Z,65.23
2024-05-09T12:28:07.896Z,65.52
2024-05-09T12:30:40.177Z,65.19
2024-05-09T12:33:11.308Z,64.46
2024-05-09T12:35:39.671Z,64.63
2024-05-09T12:38:07.152Z,64.46
2024-05-09T12:40:37.584Z,63.80
2024-05-09T12:43:08.447Z,63.85
2024-05-09T12:45:37.507Z,64.42
2024-05-09T12:48:08.423Z,64.69
2024-05-09T12:50:36.854Z,64.81
2024-05-09T12:53:05.223Z,64.93
2024-05-09T12:55:41.133Z,65.07
2024-05-09T12:58:17.382Z,65.13
2024-05-09T13:00:46.179Z,64.59
2024-05-09T13:03:14.074Z,64.22
2024-05-09T13:05:42.128Z,64.07
2024-05-09T13:08:09.704Z,64.93
2024-05-09T13:10:37.176Z,65.92
2024-05-09T13:13:05.025Z,64.32
2024-05-09T13:15:34.866Z,64.91
2024-05-09T13:18:03.591Z,65.65
2024-05-09T13:20:34.432Z,65.51
2024-05-09T13:23:08.103Z,65.54
2024-05-09T13:25:37.391Z,65.85
2024-05-09T13:28:06.289Z,66.51
2024-05-09T13:30:39.900Z,66.22
2024-05-09T13:33:14.471Z,65.65
2024-05-09T13:35:47.076Z,65.71
2024-05-09T13:38:21.960Z,66.45
2024-05-09T13:40:50.617Z,65.98
2024-05-09T13:43:18.696Z,65.93
2024-05-09T13:45:46.873Z,65.11
2024-05-09T13:48:14.541Z,65.15
2024-05-09T13:50:42.033Z,65.43
2024-05-09T13:53:09.379Z,66.17
2024-05-09T13:55:42.164Z,67.56
2024-05-09T13:58:09.848Z,67.32
2024-05-09T14:00:45.919Z,68.04
2024-05-09T14:03:20.359Z,67.55
2024-05-09T14:05:51.091Z,68.23
2024-05-09T14:08:22.130Z,68.49
2024-05-09T14:10:50.468Z,68.86
2024-05-09T14:13:18.234Z,69.40
2024-05-09T14:15:46.826Z,69.37
2024-05-09T14:18:14.781Z,69.44
2024-05-09T14:20:43.343Z,69.82
2024-05-09T14:23:12.474Z,70.09
2024-05-09T14:25:42.806Z,69.94
2024-05-09T14:28:12.687Z,70.19
2024-05-09T14:30:43.866Z,70.21
2024-05-09T14:33:11.741Z,70.73
2024-05-09T14:35:39.947Z,69.94
2024-05-09T14:38:08.370Z,70.54
2024-05-09T14:40:41.968Z,69.74
2024-05-09T14:43:12.859Z,69.81
2024-05-09T14:45:41.153Z,69.88
2024-05-09T14:48:08.962Z,69.77
2024-05-09T14:50:39.202Z,70.06
2024-05-09T14:53:09.234Z,69.68
2024-05-09T14:55:39.275Z,69.47
2024-05-09T14:58:08.387Z,69.93
2024-05-09T15:00:47.890Z,70.00
2024-05-09T15:03:21.822Z,69.33
2024-05-09T15:05:50.355Z,69.40
2024-05-09T15:08:18.772Z,69.52
2024-05-09T15:10:46.846Z,68.65
2024-05-09T15:13:16.495Z,68.75
2024-05-09T15:15:45.058Z,68.33
2024-05-09T15:18:13.705Z,68.20
2024-05-09T15:20:41.921Z,67.52
2024-05-09T15:23:09.339Z,67.54
2024-05-09T15:25:37.044Z,67.69
2024-05-09T15:28:07.820Z,67.78
2024-05-09T15:30:35.776Z,68.39
2024-05-09T15:33:04.191Z,68.74
2024-05-09T15:35:32.127Z,68.91
2024-05-09T15:38:00.075Z,68.76
2024-05-09T15:40:36.101Z,68.66
2024-05-09T15:43:08.420Z,69.25
2024-05-09T15:45:36.685Z,69.40
2024-05-09T15:48:04.685Z,69.22
2024-05-09T15:50:37.603Z,69.28
2024-05-09T15:53:12.229Z,68.91
2024-05-09T15:55:40.591Z,69.19
2024-05-09T15:58:08.334Z,69.34
2024-05-09T16:00:39.857Z,69.94
2024-05-09T16:03:10.962Z,70.20
2024-05-09T16:05:39.267Z,70.18
2024-05-09T16:08:07.817Z,70.83
2024-05-09T16:10:35.767Z,70.93
2024-05-09T16:13:04.186Z,70.62
2024-05-09T16:15:31.949Z,70.82
2024-05-09T16:18:00.409Z,71.32
2024-05-09T16:20:34.790Z,71.37
2024-05-09T16:23:07.151Z,71.46
2024-05-09T16:25:34.414Z,71.43
2024-05-09T16:28:01.990Z,71.51
2024-05-09T16:30:34.796Z,72.00
2024-05-09T16:33:04.818Z,71.73
2024-05-09T16:35:34.882Z,72.12
2024-05-09T16:38:03.842Z,72.72
2024-05-09T16:40:37.999Z,72.82
2024-05-09T16:43:12.340Z,72.78
2024-05-09T16:45:44.237Z,72.80
2024-05-09T16:48:13.358Z,73.04
2024-05-09T16:50:40.771Z,73.12
2024-05-09T16:53:08.691Z,73.41
2024-05-09T16:55:36.480Z,73.84
2024-05-09T16:58:04.963Z,73.71
2024-05-09T17:00:40.221Z,73.53
2024-05-09T17:03:13.051Z,73.70
2024-05-09T17:05:42.130Z,73.68
2024-05-09T17:08:10.252Z,73.48
2024-05-09T17:10:37.716Z,73.73
2024-05-09T17:13:07.231Z,74.09
2024-05-09T17:15:37.029Z,74.10
2024-05-09T17:18:06.572Z,74.02
2024-05-09T17:20:36.580Z,73.80
2024-05-09T17:23:13.309Z,74.20
2024-05-09T17:25:42.153Z,73.81
2024-05-09T17:28:10.454Z,73.60
2024-05-09T17:30:39.994Z,73.60
2024-05-09T17:33:10.536Z,73.69
2024-05-09T17:35:38.939Z,73.81
2024-05-09T17:38:06.827Z,74.14
2024-05-09T17:40:36.754Z,74.06
2024-05-09T17:43:07.062Z,74.42
2024-05-09T17:45:37.923Z,74.27
2024-05-09T17:48:05.924Z,74.82
2024-05-09T17:50:36.175Z,75.21
2024-05-09T17:53:10.973Z,75.26
2024-05-09T17:55:39.154Z,75.25
2024-05-09T17:58:06.770Z,75.43
2024-05-09T18:00:39.318Z,75.55
2024-05-09T18:03:13.773Z,75.77
2024-05-09T18:05:43.296Z,75.87
2024-05-09T18:08:12.387Z,76.22
2024-05-09T18:10:43.114Z,76.44
2024-05-09T18:13:12.236Z,76.46
2024-05-09T18:15:40.244Z,76.57
2024-05-09T18:18:09.195Z,77.17
2024-05-09T18:20:42.999Z,77.58
2024-05-09T18:23:15.599Z,78.13
2024-05-09T18:25:47.253Z,78.22
2024-05-09T18:28:16.432Z,78.30
2024-05-09T18:30:44.413Z,78.33
2024-05-09T18:33:12.353Z,78.09
2024-05-09T18:35:42.606Z,79.30
2024-05-09T18:38:10.447Z,79.56
2024-05-09T18:40:39.469Z,80.60
2024-05-09T18:43:09.406Z,81.21
2024-05-09T18:45:38.408Z,81.85
2024-05-09T18:48:07.932Z,81.97
2024-05-09T18:50:39.248Z,82.83
2024-05-09T18:53:12.562Z,83.54
2024-05-09T18:55:42.775Z,83.72
2024-05-09T18:58:10.493Z,83.72
2024-05-09T19:00:40.425Z,84.74
2024-05-09T19:03:13.519Z,85.00
2024-05-09T19:05:44.192Z,86.01
2024-05-09T19:08:13.101Z,86.51
2024-05-09T19:10:41.100Z,86.84
2024-05-09T19:13:12.129Z,87.05
2024-05-09T19:15:42.051Z,87.24
2024-05-09T19:18:11.231Z,87.27
2024-05-09T19:20:39.193Z,87.35
2024-05-09T19:23:07.404Z,88.43
2024-05-09T19:25:36.475Z,88.34
2024-05-09T19:28:05.809Z,88.70
2024-05-09T19:30:38.978Z,88.42
2024-05-09T19:33:10.918Z,89.01
2024-05-09T19:35:39.522Z,89.40
2024-05-09T19:38:09.535Z,89.38
2024-05-09T19:40:37.094Z,89.23
2024-05-09T19:43:06.295Z,89.53
2024-05-09T19:45:35.396Z,90.00
2024-05-09T19:48:06.882Z,89.78
2024-05-09T19:50:41.496Z,89.82
2024-05-09T19:53:15.597Z,90.16
2024-05-09T19:55:44.337Z,90.11
2024-05-09T19:58:14.691Z,90.14
2024-05-09T20:00:43.738Z,90.42
2024-05-09T20:03:14.928Z,91.08
2024-05-09T20:05:46.186Z,90.99
2024-05-09T20:08:14.542Z,91.24
2024-05-09T20:10:41.888Z,91.72
2024-05-09T20:13:09.321Z,92.00
2024-05-09T20:15:37.963Z,92.08
2024-05-09T20:18:06.572Z,92.96
2024-05-09T20:20:39.080Z,93.64
2024-05-09T20:23:13.157Z,94.21
2024-05-09T20:25:43.649Z,94.78
2024-05-09T20:28:11.414Z,95.05
2024-05-09T20:30:38.961Z,95.36
2024-05-09T20:33:07.831Z,96.08
2024-05-09T20:35:38.472Z,96.14
2024-05-09T20:38:11.708Z,96.84
2024-05-09T20:40:39.879Z,96.53
2024-05-09T20:43:09.927Z,97.33
2024-05-09T20:45:37.758Z,97.82
2024-05-09T20:48:06.037Z,97.79
2024-05-09T20:50:39.136Z,97.68
2024-05-09T20:53:10.319Z,98.15
2024-05-09T20:55:40.865Z,98.43
2024-05-09T20:58:11.433Z,98.42
2024-05-09T21:00:42.771Z,99.12
2024-05-09T21:03:13.821Z,99.66
2024-05-09T21:05:42.222Z,99.39
2024-05-09T21:08:09.533Z,99.13
2024-05-09T21:10:37.613Z,99.11
2024-05-09T21:13:06.834Z,99.22
2024-05-09T21:15:36.514Z,98.98
2024-05-09T21:18:07.627Z,99.38
2024-05-09T21:20:35.408Z,99.83
2024-05-09T21:23:03.613Z,100.00
2024-05-09T21:25:31.437Z,100.00
2024-05-09T21:27:58.956Z,100.00
2024-05-09T21:30:33.211Z,100.00
2024-05-09T21:33:10.196Z,100.00
2024-05-09T21:35:39.086Z,100.00
2024-05-09T21:38:07.372Z,100.00
2024-05-09T21:40:36.594Z,100.00
2024-05-09T21:43:06.139Z,100.00
2024-05-09T21:45:34.306Z,99.21
2024-05-09T21:48:04.302Z,99.08
2024-05-09T21:50:38.926Z,97.17
2024-05-09T21:53:09.648Z,93.67
2024-05-09T21:55:37.028Z,91.93
2024-05-09T21:58:04.551Z,89.27
2024-05-09T22:00:36.602Z,85.23
2024-05-09T22:03:10.850Z,80.15
2024-05-09T22:05:42.354Z,75.75
2024-05-09T22:08:10.015Z,73.74
2024-05-09T22:10:37.718Z,73.58
2024-05-09T22:13:08.928Z,73.38
2024-05-09T22:15:38.505Z,72.42
2024-05-09T22:18:08.570Z,71.51
2024-05-09T22:20:39.373Z,70.84
2024-05-09T22:23:08.689Z,69.98
2024-05-09T22:25:37.329Z,69.44
2024-05-09T22:28:05.462Z,67.77
2024-05-09T22:30:37.276Z,67.52
2024-05-09T22:33:08.987Z,66.37
2024-05-09T22:35:37.465Z,66.35
2024-05-09T22:38:05.167Z,65.84
2024-05-09T22:40:42.200Z,64.80
2024-05-09T22:43:23.451Z,63.66
2024-05-09T22:45:53.312Z,64.19
2024-05-09T22:48:20.894Z,64.51
2024-05-09T22:50:48.171Z,63.71
2024-05-09T22:53:15.896Z,63.51
2024-05-09T22:55:43.166Z,63.44
2024-05-09T22:58:10.430Z,63.51
2024-05-09T23:00:37.804Z,61.21
2024-05-09T23:03:05.299Z,61.61
2024-05-09T23:05:33.107Z,60.26
2024-05-09T23:08:02.128Z,59.15
2024-05-09T23:10:35.687Z,60.05
2024-05-09T23:13:06.500Z,59.98
2024-05-09T23:15:34.202Z,59.60
2024-05-09T23:18:01.707Z,59.93
2024-05-09T23:20:36.395Z,60.42
2024-05-09T23:23:07.313Z,61.02
2024-05-09T23:25:35.115Z,61.35
2024-05-09T23:28:02.762Z,62.19
2024-05-09T23:30:37.482Z,62.40
2024-05-09T23:33:09.689Z,63.27
2024-05-09T23:35:37.471Z,64.82
2024-05-09T23:38:04.969Z,65.82
2024-05-09T23:43:03.312Z,66.47
2024-05-09T23:45:31.197Z,66.98
2024-05-09T23:47:58.660Z,66.92
2024-05-09T23:50:33.678Z,67.04
2024-05-09T23:53:04.500Z,68.21
2024-05-09T23:55:32.392Z,68.60
2024-05-09T23:58:00.534Z,68.47
